Morton S Bouchard Jr — WSE9678 — position and weather

sailwx.info

Track history (hours):
 
Tides and Currents Weather Stations Pressure Air Temp Water Temp Dewpoint Dewpoint Depression Visibility Wind Speed Wind Dir Waves Ship Positions

Morton S Bouchard Jr

Owner: BOUCHARD TRANSPORTATION CO INC, MELVILLE, NY. More information available from US FCC via Universal Licensing System and Coast Guard Vessel Documentation Center.

Last reported at 2017-Apr-27 18:31 UTC. Time now 2017-Apr-27 18:54 UTC.
Position N 40°34' W 074°02'.

Length 33 m; draft 5.9 m.

Type: Tug. MMSI: 367006550.

Date/timePositionNaut miles runAvg speedWind from/ knotsBaromVisibWave heightAir tempDewpointWater temp
2017-Apr-27 18:31N 40°34' W 074°02'3 5.4
2017-Apr-27 18:01N 40°31' W 074°00'3 6.0
2017-Apr-27 17:30N 40°30' W 073°57'3 6.3
2017-Apr-27 16:59N 40°27' W 073°54'39 9.2
2017-Apr-27 12:43N 39°48' W 073°58'5 9.1
2017-Apr-27 12:13N 39°44' W 073°60'2 8.8
2017-Apr-27 11:59N 39°42' W 074°01'6 8.9
2017-Apr-27 11:18N 39°36' W 074°05'3 8.8
2017-Apr-27 10:57N 39°34' W 074°07'44 8.9
2017-Apr-27 05:59N 38°59' W 074°42'5 9.3
2017-Apr-27 05:30N 38°55' W 074°45'13 9.4
2017-Apr-27 04:08N 38°48' W 074°58'19 9.4
2017-Apr-27 02:07N 39°04' W 075°11'6 8.5
2017-Apr-27 01:24N 39°09' W 075°15'3 7.7
2017-Apr-27 01:01N 39°12' W 075°17'3 6.8
2017-Apr-27 00:31N 39°15' W 075°19'4 8.1
2017-Apr-27 00:01N 39°18' W 075°23'4 8.9
2017-Apr-26 23:31N 39°21' W 075°27'510.0
2017-Apr-26 23:01N 39°25' W 075°31'5 9.1
2017-Apr-26 22:31N 39°29' W 075°33'1 0.9
2017-Apr-26 21:58N 39°30' W 075°33'0 0.0
2017-Apr-26 21:28N 39°30' W 075°33'0 0.0
2017-Apr-26 20:58N 39°30' W 075°33'0 0.0
2017-Apr-26 20:28N 39°30' W 075°33'0 0.0
2017-Apr-26 19:58N 39°30' W 075°33'0 0.0
2017-Apr-26 19:28N 39°30' W 075°33'0 0.0
2017-Apr-26 18:58N 39°30' W 075°33'0 0.1
2017-Apr-26 18:28N 39°30' W 075°33'0 0.1
2017-Apr-26 17:58N 39°30' W 075°33'0 0.1
2017-Apr-26 17:28N 39°30' W 075°33'0 0.0
2017-Apr-26 16:58N 39°30' W 075°33'0 0.1
2017-Apr-26 16:28N 39°30' W 075°33'0 0.0
2017-Apr-26 15:58N 39°30' W 075°33'0 0.0
2017-Apr-26 15:28N 39°30' W 075°33'0 0.0
2017-Apr-26 14:58N 39°30' W 075°33'0 0.0
2017-Apr-26 14:28N 39°30' W 075°33'0 0.0
2017-Apr-26 13:28N 39°30' W 075°33'0 0.0
2017-Apr-26 12:58N 39°30' W 075°33'0 0.3
2017-Apr-26 12:28N 39°30' W 075°33'0 0.1
2017-Apr-26 11:58N 39°30' W 075°33'0 0.0
2017-Apr-26 11:28N 39°30' W 075°33'0 0.0
2017-Apr-26 10:58N 39°30' W 075°33'0 0.0
2017-Apr-26 10:28N 39°30' W 075°33'0 0.0
2017-Apr-26 09:58N 39°30' W 075°33'0 0.0
2017-Apr-26 09:28N 39°30' W 075°33'0 0.0
2017-Apr-26 08:58N 39°30' W 075°33'0 0.0
2017-Apr-26 08:28N 39°30' W 075°33'0 0.0
2017-Apr-26 07:58N 39°30' W 075°33'0 0.0
2017-Apr-26 07:28N 39°30' W 075°33'0 0.0
2017-Apr-26 06:58N 39°30' W 075°33'0 0.0
2017-Apr-26 06:28N 39°30' W 075°33'0 0.0
2017-Apr-26 05:58N 39°30' W 075°33'0 0.0
2017-Apr-26 05:25N 39°30' W 075°33'0 0.0
2017-Apr-26 04:58N 39°30' W 075°33'0 0.0
2017-Apr-26 04:28N 39°30' W 075°33'0 0.0
2017-Apr-26 03:58N 39°30' W 075°33'0 0.0
2017-Apr-26 03:28N 39°30' W 075°33'0 0.1
2017-Apr-26 02:58N 39°30' W 075°33'0 0.1
2017-Apr-26 02:28N 39°30' W 075°33'0 0.1
2017-Apr-26 01:58N 39°30' W 075°33'0 0.0
2017-Apr-26 01:28N 39°30' W 075°33'0 0.0
2017-Apr-26 00:58N 39°30' W 075°33'0 0.3
2017-Apr-26 00:31N 39°30' W 075°33'0 0.0
2017-Apr-26 00:01N 39°30' W 075°33'0 0.0
2017-Apr-25 23:30N 39°30' W 075°33'0 0.1
2017-Apr-25 23:00N 39°30' W 075°33'0 0.0
2017-Apr-25 22:30N 39°30' W 075°33'0 0.0
2017-Apr-25 22:00N 39°30' W 075°33'0 0.0
2017-Apr-25 21:30N 39°30' W 075°33'0 0.0
2017-Apr-25 21:00N 39°30' W 075°33'0 0.0
2017-Apr-25 20:30N 39°30' W 075°33'0 0.0
2017-Apr-25 20:00N 39°30' W 075°33'0 0.0
2017-Apr-25 19:30N 39°30' W 075°33'0 0.0
2017-Apr-25 19:00N 39°30' W 075°33'0 0.0
2017-Apr-25 18:30N 39°30' W 075°33'0 0.0
2017-Apr-25 17:57N 39°30' W 075°33'0 0.0
2017-Apr-25 17:30N 39°30' W 075°33'0 0.0
2017-Apr-25 17:00N 39°30' W 075°33'0 0.1
2017-Apr-25 16:30N 39°30' W 075°33'3 5.4
2017-Apr-25 16:00N 39°32' W 075°33'4 8.5
2017-Apr-25 15:30N 39°36' W 075°34'4 7.5
2017-Apr-25 15:00N 39°40' W 075°32'8 7.9
2017-Apr-25 14:00N 39°47' W 075°28'4 8.2
2017-Apr-25 13:30N 39°49' W 075°23'4 8.0
2017-Apr-25 13:00N 39°51' W 075°19'5 9.3
2017-Apr-25 12:30N 39°52' W 075°13'5 9.3
2017-Apr-25 12:00N 39°55' W 075°08'4 8.7
2017-Apr-25 11:30N 39°59' W 075°05'1 2.1
2017-Apr-25 10:59N 39°59' W 075°04'0 0.0
2017-Apr-25 10:29N 39°59' W 075°04'0 0.2
2017-Apr-25 10:00N 39°59' W 075°04'0 0.1
2017-Apr-25 09:30N 39°59' W 075°04'1 2.5
2017-Apr-25 08:58N 39°58' W 075°06'1 3.0
2017-Apr-25 08:30N 39°58' W 075°07'2 3.7
2017-Apr-25 08:00N 39°56' W 075°08'0 0.0
2017-Apr-25 07:30N 39°56' W 075°08'0 0.0
2017-Apr-25 07:00N 39°56' W 075°08'0 0.0
2017-Apr-25 06:30N 39°56' W 075°08'0 0.0
2017-Apr-25 06:00N 39°56' W 075°08'0 0.0
2017-Apr-25 05:30N 39°56' W 075°08'0 0.0
2017-Apr-25 05:00N 39°56' W 075°08'0 0.0
2017-Apr-25 04:30N 39°56' W 075°08'0 0.0
2017-Apr-25 04:00N 39°56' W 075°08'0 0.0
2017-Apr-25 03:30N 39°56' W 075°08'0 0.0
2017-Apr-25 03:00N 39°56' W 075°08'0 0.0
2017-Apr-25 02:30N 39°56' W 075°08'0 0.0
2017-Apr-25 02:00N 39°56' W 075°08'0 0.0
2017-Apr-25 01:30N 39°56' W 075°08'0 0.0
2017-Apr-25 01:00N 39°56' W 075°08'0 0.0
2017-Apr-25 00:30N 39°56' W 075°08'1 2.2
2017-Apr-25 00:00N 39°55' W 075°08'4 7.1
2017-Apr-24 23:30N 39°53' W 075°12'1 1.6
2017-Apr-24 22:59N 39°54' W 075°12'0 0.0
2017-Apr-24 22:29N 39°54' W 075°12'0 0.0
2017-Apr-24 21:59N 39°54' W 075°12'0 0.0
2017-Apr-24 21:29N 39°54' W 075°12'0 0.0
2017-Apr-24 20:59N 39°54' W 075°12'0 0.0
2017-Apr-24 20:29N 39°54' W 075°12'0 0.0
2017-Apr-24 19:56N 39°54' W 075°12'0 0.0
2017-Apr-24 19:29N 39°54' W 075°12'0 0.0
2017-Apr-24 18:59N 39°54' W 075°12'0 0.0
2017-Apr-24 18:29N 39°54' W 075°12'0 0.0
2017-Apr-24 17:59N 39°54' W 075°12'0 0.7
2017-Apr-24 17:30N 39°53' W 075°12'3 6.6
2017-Apr-24 17:00N 39°55' W 075°08'4 8.0
2017-Apr-24 16:30N 39°58' W 075°06'1 2.6
2017-Apr-24 16:00N 39°59' W 075°04'0 0.0
2017-Apr-24 15:30N 39°59' W 075°04'0 0.0
2017-Apr-24 15:00N 39°59' W 075°04'2 4.9
2017-Apr-24 14:30N 39°58' W 075°07'3 2.8
2017-Apr-24 13:30N 39°55' W 075°08'0 0.0
2017-Apr-24 13:00N 39°55' W 075°08'0 0.2
2017-Apr-24 12:30N 39°55' W 075°08'0 0.3
2017-Apr-24 12:00N 39°55' W 075°08'0 0.0
2017-Apr-24 11:30N 39°55' W 075°08'0 0.0
2017-Apr-24 11:00N 39°55' W 075°08'0 0.0
2017-Apr-24 10:30N 39°55' W 075°08'0 0.0
2017-Apr-24 10:00N 39°55' W 075°08'0 0.0
2017-Apr-24 09:30N 39°55' W 075°08'0 0.0
2017-Apr-24 09:00N 39°55' W 075°08'0 0.0
2017-Apr-24 08:30N 39°55' W 075°08'0 0.0
2017-Apr-24 08:00N 39°55' W 075°08'0 0.0
2017-Apr-24 07:30N 39°55' W 075°08'0 0.0
2017-Apr-24 07:00N 39°55' W 075°08'0 0.0
2017-Apr-24 06:30N 39°55' W 075°08'0 0.1
2017-Apr-24 06:00N 39°55' W 075°08'0 0.1
2017-Apr-24 05:30N 39°55' W 075°08'0 0.2
2017-Apr-24 05:00N 39°55' W 075°08'0 0.1
2017-Apr-24 04:30N 39°55' W 075°08'0 0.0
2017-Apr-24 04:00N 39°55' W 075°08'0 0.0
2017-Apr-24 03:30N 39°55' W 075°08'0 0.0
2017-Apr-24 03:00N 39°55' W 075°08'0 0.0
2017-Apr-24 02:30N 39°55' W 075°08'0 0.0
2017-Apr-24 02:00N 39°55' W 075°08'0 0.0
2017-Apr-24 01:30N 39°55' W 075°08'0 0.0
2017-Apr-24 01:00N 39°55' W 075°08'0 0.0
2017-Apr-24 00:30N 39°55' W 075°08'0 0.0
2017-Apr-24 00:00N 39°55' W 075°08'0 0.3
2017-Apr-23 23:30N 39°55' W 075°08'0 0.1
2017-Apr-23 23:00N 39°55' W 075°08'0 0.0
2017-Apr-23 22:30N 39°55' W 075°08'0 0.0
2017-Apr-23 22:00N 39°55' W 075°08'0 0.0
2017-Apr-23 21:30N 39°55' W 075°08'0 0.0
2017-Apr-23 21:00N 39°55' W 075°08'0 0.0
2017-Apr-23 20:30N 39°55' W 075°08'0 0.0
2017-Apr-23 20:00N 39°55' W 075°08'0 0.0
2017-Apr-23 19:30N 39°55' W 075°08'0 0.0
2017-Apr-23 19:00N 39°55' W 075°08'0 0.0
2017-Apr-23 18:30N 39°55' W 075°08'0 0.0
2017-Apr-23 18:00N 39°55' W 075°08'0 0.0
2017-Apr-23 17:30N 39°55' W 075°08'0 0.3
2017-Apr-23 17:00N 39°55' W 075°08'0 0.1
2017-Apr-23 16:30N 39°55' W 075°08'0 0.0
2017-Apr-23 16:00N 39°55' W 075°08'0 0.0
2017-Apr-23 15:30N 39°55' W 075°08'0 0.0
2017-Apr-23 15:00N 39°55' W 075°08'0 0.0
2017-Apr-23 14:30N 39°55' W 075°08'0 0.0
2017-Apr-23 13:30N 39°55' W 075°08'0 0.0
2017-Apr-23 12:59N 39°55' W 075°08'0 0.0
2017-Apr-23 12:29N 39°55' W 075°08'0 0.0
2017-Apr-23 11:59N 39°55' W 075°08'0 0.3
2017-Apr-23 11:29N 39°55' W 075°08'0 0.1
2017-Apr-23 10:59N 39°55' W 075°08'0 0.0
2017-Apr-23 10:29N 39°55' W 075°08'0 0.0
2017-Apr-23 09:59N 39°55' W 075°08'0 0.0
2017-Apr-23 09:29N 39°55' W 075°08'0 0.0
2017-Apr-23 08:59N 39°55' W 075°08'0 0.0
2017-Apr-23 08:29N 39°55' W 075°08'0 0.0
2017-Apr-23 07:59N 39°55' W 075°08'0 0.0
2017-Apr-23 07:29N 39°55' W 075°08'0 0.0
2017-Apr-23 06:59N 39°55' W 075°08'0 0.0
2017-Apr-23 06:29N 39°55' W 075°08'0 0.0
2017-Apr-23 05:59N 39°55' W 075°08'0 0.0
2017-Apr-23 05:29N 39°55' W 075°08'0 0.0
2017-Apr-23 04:59N 39°55' W 075°08'0 0.0
2017-Apr-23 04:29N 39°55' W 075°08'0 0.2
2017-Apr-23 03:59N 39°55' W 075°08'0 0.1
2017-Apr-23 03:29N 39°55' W 075°08'0 0.0
2017-Apr-23 02:59N 39°55' W 075°08'0 0.0
2017-Apr-23 02:29N 39°55' W 075°08'0 0.1
2017-Apr-23 01:59N 39°55' W 075°08'0 0.0
2017-Apr-23 01:29N 39°55' W 075°08'0 0.0
2017-Apr-23 00:59N 39°55' W 075°08'0 0.0
2017-Apr-23 00:29N 39°55' W 075°08'0 0.0
2017-Apr-22 23:59N 39°55' W 075°08'0 0.0
2017-Apr-22 23:29N 39°55' W 075°08'0 0.3
2017-Apr-22 22:59N 39°55' W 075°08'0 0.1
2017-Apr-22 22:29N 39°55' W 075°08'0 0.0
2017-Apr-22 22:00N 39°55' W 075°08'0 0.0
2017-Apr-22 21:30N 39°55' W 075°08'0 0.0
2017-Apr-22 21:00N 39°55' W 075°08'0 0.0
2017-Apr-22 20:30N 39°55' W 075°08'0 0.0
2017-Apr-22 20:00N 39°55' W 075°08'0 0.0
2017-Apr-22 19:30N 39°55' W 075°08'0 0.0
2017-Apr-22 19:01N 39°55' W 075°08'0 0.0
2017-Apr-22 18:31N 39°55' W 075°08'0 0.0
2017-Apr-22 18:00N 39°55' W 075°08'0 0.0
2017-Apr-22 17:30N 39°55' W 075°08'0 0.0
2017-Apr-22 17:00N 39°55' W 075°08'0 0.0
2017-Apr-22 16:30N 39°55' W 075°08'0 0.0
2017-Apr-22 16:00N 39°55' W 075°08'0 0.9
2017-Apr-22 15:30N 39°55' W 075°08'3 6.8
2017-Apr-22 15:01N 39°53' W 075°11'4 8.1
2017-Apr-22 14:30N 39°51' W 075°16'8 8.5
2017-Apr-22 13:30N 39°48' W 075°26'4 9.0
2017-Apr-22 13:00N 39°44' W 075°30'5 9.2
2017-Apr-22 12:30N 39°40' W 075°32'4 8.3
2017-Apr-22 12:00N 39°36' W 075°34'1 2.8
2017-Apr-22 11:30N 39°35' W 075°35'1 1.9
2017-Apr-22 11:00N 39°35' W 075°36'0 0.1
2017-Apr-22 10:30N 39°35' W 075°36'0 0.0
2017-Apr-22 10:00N 39°35' W 075°36'0 0.0
2017-Apr-22 09:30N 39°35' W 075°36'0 0.0
2017-Apr-22 09:00N 39°35' W 075°36'0 0.0
2017-Apr-22 08:30N 39°35' W 075°36'0 0.0
2017-Apr-22 08:00N 39°35' W 075°36'0 0.0
2017-Apr-22 07:31N 39°35' W 075°36'0 0.0
2017-Apr-22 07:00N 39°35' W 075°36'0 0.0
2017-Apr-22 06:31N 39°35' W 075°36'0 0.0
2017-Apr-22 06:00N 39°35' W 075°36'0 0.0
2017-Apr-22 05:30N 39°35' W 075°36'0 0.0
2017-Apr-22 05:00N 39°35' W 075°36'0 0.0
2017-Apr-22 04:30N 39°35' W 075°36'0 0.0
2017-Apr-22 04:00N 39°35' W 075°36'0 0.0
2017-Apr-22 03:30N 39°35' W 075°36'0 0.0
2017-Apr-22 03:01N 39°35' W 075°36'0 0.0
2017-Apr-22 02:31N 39°35' W 075°36'0 0.0
2017-Apr-22 02:00N 39°35' W 075°36'0 0.0
2017-Apr-22 01:30N 39°35' W 075°36'0 0.0
2017-Apr-22 01:00N 39°35' W 075°36'0 0.0
2017-Apr-22 00:31N 39°35' W 075°36'0 0.0
2017-Apr-22 00:01N 39°35' W 075°36'0 0.0
2017-Apr-21 23:30N 39°35' W 075°36'0 0.0
2017-Apr-21 23:00N 39°35' W 075°36'0 0.0
2017-Apr-21 22:30N 39°35' W 075°36'0 0.0
2017-Apr-21 22:01N 39°35' W 075°36'0 0.0
2017-Apr-21 21:30N 39°35' W 075°36'0 0.0
2017-Apr-21 21:00N 39°35' W 075°36'0 0.0
2017-Apr-21 20:30N 39°35' W 075°36'0 0.0
2017-Apr-21 20:00N 39°35' W 075°36'0 0.0
2017-Apr-21 19:30N 39°35' W 075°36'0 0.0
2017-Apr-21 19:00N 39°35' W 075°36'0 0.0
2017-Apr-21 18:30N 39°35' W 075°36'0 0.0
2017-Apr-21 18:00N 39°35' W 075°36'0 0.0
2017-Apr-21 17:30N 39°35' W 075°36'0 0.0
2017-Apr-21 17:00N 39°35' W 075°36'2 3.8
2017-Apr-21 16:30N 39°34' W 075°34'1 2.8
2017-Apr-21 16:01N 39°33' W 075°33'0 0.0
2017-Apr-21 15:30N 39°33' W 075°33'0 0.0
2017-Apr-21 15:00N 39°33' W 075°33'0 0.0
2017-Apr-21 14:31N 39°33' W 075°33'0 0.1
2017-Apr-21 13:30N 39°33' W 075°33'0 0.0
2017-Apr-21 13:01N 39°33' W 075°33'0 0.0
2017-Apr-21 12:30N 39°33' W 075°33'0 0.1
2017-Apr-21 12:00N 39°33' W 075°33'0 0.0
2017-Apr-21 11:30N 39°33' W 075°33'0 0.0
2017-Apr-21 11:00N 39°33' W 075°33'0 0.0
2017-Apr-21 10:30N 39°33' W 075°33'0 0.0
2017-Apr-21 10:00N 39°33' W 075°33'0 0.0
2017-Apr-21 09:30N 39°33' W 075°33'0 0.0
2017-Apr-21 09:01N 39°33' W 075°33'0 0.0
2017-Apr-21 08:30N 39°33' W 075°33'0 0.0
2017-Apr-21 08:00N 39°33' W 075°33'0 0.0
2017-Apr-21 07:30N 39°33' W 075°33'0 0.0
2017-Apr-21 07:01N 39°33' W 075°33'0 0.2
2017-Apr-21 06:30N 39°33' W 075°33'0 0.0
2017-Apr-21 06:01N 39°33' W 075°33'0 0.0
2017-Apr-21 05:30N 39°33' W 075°33'0 0.0
2017-Apr-21 05:00N 39°33' W 075°33'0 0.0
2017-Apr-21 04:30N 39°33' W 075°33'0 0.0
2017-Apr-21 04:00N 39°33' W 075°33'0 0.0
2017-Apr-21 03:30N 39°33' W 075°33'0 0.0
2017-Apr-21 03:01N 39°33' W 075°33'0 0.0
2017-Apr-21 02:30N 39°33' W 075°33'0 0.1
2017-Apr-21 02:00N 39°33' W 075°33'0 0.1
2017-Apr-21 01:30N 39°33' W 075°33'0 0.1
2017-Apr-21 01:01N 39°33' W 075°33'0 0.1
2017-Apr-21 00:30N 39°33' W 075°33'0 0.0
2017-Apr-21 00:00N 39°33' W 075°33'0 0.0
2017-Apr-20 23:30N 39°33' W 075°33'0 0.0
2017-Apr-20 23:00N 39°33' W 075°33'0 0.0
2017-Apr-20 22:30N 39°33' W 075°33'0 0.0
2017-Apr-20 22:00N 39°33' W 075°33'0 0.0
2017-Apr-20 21:30N 39°33' W 075°33'0 0.0
2017-Apr-20 21:00N 39°33' W 075°33'0 0.0
2017-Apr-20 20:30N 39°33' W 075°33'0 0.1
2017-Apr-20 20:00N 39°33' W 075°33'0 0.0
2017-Apr-20 19:30N 39°33' W 075°33'0 0.1
2017-Apr-20 19:00N 39°33' W 075°33'0 0.1
2017-Apr-20 18:30N 39°33' W 075°33'0 0.0
2017-Apr-20 18:01N 39°33' W 075°33'0 0.0
2017-Apr-20 17:30N 39°33' W 075°33'0 0.0
2017-Apr-20 17:01N 39°33' W 075°33'0 0.0
2017-Apr-20 16:31N 39°33' W 075°33'0 0.0
2017-Apr-20 16:00N 39°33' W 075°33'0 0.0
2017-Apr-20 15:30N 39°33' W 075°33'0 0.0
2017-Apr-20 15:01N 39°33' W 075°33'0 0.0
2017-Apr-20 14:30N 39°33' W 075°33'0 0.0
2017-Apr-20 13:30N 39°33' W 075°33'0 0.1
2017-Apr-20 13:00N 39°33' W 075°33'0 0.0
2017-Apr-20 12:31N 39°33' W 075°33'0 0.1
2017-Apr-20 12:00N 39°33' W 075°33'0 0.0
2017-Apr-20 11:30N 39°33' W 075°33'0 0.0
2017-Apr-20 11:00N 39°33' W 075°33'0 0.0
2017-Apr-20 10:30N 39°33' W 075°33'0 0.0
2017-Apr-20 10:00N 39°33' W 075°33'0 0.0
2017-Apr-20 09:30N 39°33' W 075°33'0 0.0
2017-Apr-20 09:00N 39°33' W 075°33'0 0.0
2017-Apr-20 08:30N 39°33' W 075°33'0 0.0
2017-Apr-20 08:00N 39°33' W 075°33'0 0.1
2017-Apr-20 07:30N 39°33' W 075°33'0 0.0
2017-Apr-20 07:00N 39°33' W 075°33'0 0.0
2017-Apr-20 06:30N 39°33' W 075°33'0 0.1
2017-Apr-20 06:00N 39°33' W 075°33'0 0.0
2017-Apr-20 05:30N 39°33' W 075°33'0 0.0
2017-Apr-20 05:00N 39°33' W 075°33'0 0.0
2017-Apr-20 04:30N 39°33' W 075°33'0 0.0
2017-Apr-20 04:00N 39°33' W 075°33'0 0.0
2017-Apr-20 03:30N 39°33' W 075°33'0 0.0
2017-Apr-20 03:00N 39°33' W 075°33'0 0.0
2017-Apr-20 02:31N 39°33' W 075°33'0 0.0
2017-Apr-20 02:00N 39°33' W 075°33'0 0.1
2017-Apr-20 01:30N 39°33' W 075°33'0 0.1
2017-Apr-20 01:00N 39°33' W 075°33'0 0.1
2017-Apr-20 00:30N 39°33' W 075°33'0 0.1
2017-Apr-20 00:00N 39°33' W 075°33'0 0.0
2017-Apr-19 23:30N 39°33' W 075°33'0 0.0
2017-Apr-19 23:00N 39°33' W 075°33'0 0.0
2017-Apr-19 22:30N 39°33' W 075°33'0 0.0
2017-Apr-19 22:00N 39°33' W 075°33'0 0.0
2017-Apr-19 21:30N 39°33' W 075°33'0 0.0
2017-Apr-19 21:00N 39°33' W 075°33'0 0.9
2017-Apr-19 20:30N 39°33' W 075°33'4 8.2
2017-Apr-19 20:00N 39°33' W 075°38'510.3
2017-Apr-19 19:30N 39°32' W 075°45'5 9.3
2017-Apr-19 19:00N 39°32' W 075°51'510.2
2017-Apr-19 18:30N 39°29' W 075°57'510.4
2017-Apr-19 18:00N 39°25' W 076°01'510.1
2017-Apr-19 17:30N 39°23' W 076°07'510.4
2017-Apr-19 17:00N 39°20' W 076°12'5 9.9
2017-Apr-19 16:28N 39°15' W 076°14'710.0
2017-Apr-19 15:48N 39°09' W 076°19'3 8.3
2017-Apr-19 15:30N 39°07' W 076°20'5 9.2
2017-Apr-19 14:59N 39°02' W 076°22'510.3
2017-Apr-19 14:30N 38°57' W 076°24'1110.2
2017-Apr-19 13:24N 38°46' W 076°27'410.0
2017-Apr-19 12:59N 38°42' W 076°27'7 9.9
2017-Apr-19 12:19N 38°36' W 076°28'4 9.5
2017-Apr-19 11:53N 38°32' W 076°27'4 9.9
2017-Apr-19 11:29N 38°28' W 076°25'510.3
2017-Apr-19 11:00N 38°24' W 076°21'510.2
2017-Apr-19 10:30N 38°19' W 076°20'2410.1
2017-Apr-19 08:07N 37°56' W 076°10'26 9.5
2017-Apr-19 05:26N 37°31' W 076°09'5 9.8
2017-Apr-19 04:59N 37°26' W 076°08'6 9.6
2017-Apr-19 04:24N 37°21' W 076°09'4 9.5
2017-Apr-19 03:56N 37°16' W 076°09'20 6.6
2017-Apr-19 01:00N 36°59' W 076°20'4 4.2
2017-Apr-19 00:06N 36°55' W 076°20'310.4
2017-Apr-18 23:51N 36°53' W 076°20'3 8.7
2017-Apr-18 23:30N 36°50' W 076°18'3 7.0
2017-Apr-18 23:01N 36°47' W 076°19'0 0.3
2017-Apr-18 22:30N 36°47' W 076°18'0 0.0
2017-Apr-18 22:01N 36°47' W 076°18'0 0.0
2017-Apr-18 21:30N 36°47' W 076°18'0 0.0
2017-Apr-18 21:00N 36°47' W 076°18'0 0.0
2017-Apr-18 20:30N 36°47' W 076°18'0 0.0
2017-Apr-18 20:00N 36°47' W 076°18'0 0.0
2017-Apr-18 19:30N 36°47' W 076°18'0 0.0
2017-Apr-18 19:00N 36°47' W 076°18'0 0.0
2017-Apr-18 18:31N 36°47' W 076°18'0 0.0
2017-Apr-18 18:00N 36°47' W 076°18'0 0.0
2017-Apr-18 17:30N 36°47' W 076°18'0 0.0
2017-Apr-18 17:00N 36°47' W 076°18'0 0.0
2017-Apr-18 16:30N 36°47' W 076°18'0 0.0
2017-Apr-18 16:00N 36°47' W 076°18'0 0.0
2017-Apr-18 15:31N 36°47' W 076°18'0 0.0
2017-Apr-18 15:00N 36°47' W 076°18'0 0.0
2017-Apr-18 14:31N 36°47' W 076°18'0 0.0
2017-Apr-18 13:31N 36°47' W 076°18'0 0.0
2017-Apr-18 13:00N 36°47' W 076°18'0 0.0
2017-Apr-18 12:31N 36°47' W 076°18'0 0.0
2017-Apr-18 12:01N 36°47' W 076°18'0 0.0
2017-Apr-18 11:31N 36°47' W 076°18'0 0.0
2017-Apr-18 11:00N 36°47' W 076°18'0 0.0
2017-Apr-18 10:30N 36°47' W 076°18'0 0.0
2017-Apr-18 10:00N 36°47' W 076°18'0 0.0
2017-Apr-18 09:30N 36°47' W 076°18'0 0.0
2017-Apr-18 09:01N 36°47' W 076°18'0 0.0
2017-Apr-18 08:30N 36°47' W 076°18'0 0.0
2017-Apr-18 08:00N 36°47' W 076°18'0 0.0
2017-Apr-18 07:31N 36°47' W 076°18'0 0.0
2017-Apr-18 07:00N 36°47' W 076°18'0 0.0
2017-Apr-18 06:30N 36°47' W 076°18'0 0.0
2017-Apr-18 06:00N 36°47' W 076°18'0 0.0
2017-Apr-18 05:30N 36°47' W 076°18'0 0.0
2017-Apr-18 05:01N 36°47' W 076°18'0 0.0
2017-Apr-18 04:30N 36°47' W 076°18'1 1.5
2017-Apr-18 04:00N 36°47' W 076°18'2 4.7
2017-Apr-18 03:30N 36°50' W 076°18'1 2.8
2017-Apr-18 03:00N 36°51' W 076°18'2 3.8
2017-Apr-18 02:30N 36°52' W 076°20'5 0.6
2017-Apr-17 18:36N 36°57' W 076°21'  
Track history (hours):
 
Tides and Currents Weather Stations Pressure Air Temp Water Temp Dewpoint Dewpoint Depression Visibility Wind Speed Wind Dir Waves Ship Positions

Morton S Bouchard Jr

Owner: BOUCHARD TRANSPORTATION CO INC, MELVILLE, NY. More information available from US FCC via Universal Licensing System and Coast Guard Vessel Documentation Center.

Last reported at 2017-Apr-27 18:31 UTC. Time now 2017-Apr-27 18:54 UTC.
Position N 40°34' W 074°02'.

Length 33 m; draft 5.9 m.

Type: Tug. MMSI: 367006550.

Date/timePositionNaut miles runAvg speedWind from/ knotsBaromVisibWave heightAir tempDewpointWater temp
2017-Apr-27 18:31N 40°34' W 074°02'3 5.4
2017-Apr-27 18:01N 40°31' W 074°00'3 6.0
2017-Apr-27 17:30N 40°30' W 073°57'3 6.3
2017-Apr-27 16:59N 40°27' W 073°54'39 9.2
2017-Apr-27 12:43N 39°48' W 073°58'5 9.1
2017-Apr-27 12:13N 39°44' W 073°60'2 8.8
2017-Apr-27 11:59N 39°42' W 074°01'6 8.9
2017-Apr-27 11:18N 39°36' W 074°05'3 8.8
2017-Apr-27 10:57N 39°34' W 074°07'44 8.9
2017-Apr-27 05:59N 38°59' W 074°42'5 9.3
2017-Apr-27 05:30N 38°55' W 074°45'13 9.4
2017-Apr-27 04:08N 38°48' W 074°58'19 9.4
2017-Apr-27 02:07N 39°04' W 075°11'6 8.5
2017-Apr-27 01:24N 39°09' W 075°15'3 7.7
2017-Apr-27 01:01N 39°12' W 075°17'3 6.8
2017-Apr-27 00:31N 39°15' W 075°19'4 8.1
2017-Apr-27 00:01N 39°18' W 075°23'4 8.9
2017-Apr-26 23:31N 39°21' W 075°27'510.0
2017-Apr-26 23:01N 39°25' W 075°31'5 9.1
2017-Apr-26 22:31N 39°29' W 075°33'1 0.9
2017-Apr-26 21:58N 39°30' W 075°33'0 0.0
2017-Apr-26 21:28N 39°30' W 075°33'0 0.0
2017-Apr-26 20:58N 39°30' W 075°33'0 0.0
2017-Apr-26 20:28N 39°30' W 075°33'0 0.0
2017-Apr-26 19:58N 39°30' W 075°33'0 0.0
2017-Apr-26 19:28N 39°30' W 075°33'0 0.0
2017-Apr-26 18:58N 39°30' W 075°33'0 0.1
2017-Apr-26 18:28N 39°30' W 075°33'0 0.1
2017-Apr-26 17:58N 39°30' W 075°33'0 0.1
2017-Apr-26 17:28N 39°30' W 075°33'0 0.0
2017-Apr-26 16:58N 39°30' W 075°33'0 0.1
2017-Apr-26 16:28N 39°30' W 075°33'0 0.0
2017-Apr-26 15:58N 39°30' W 075°33'0 0.0
2017-Apr-26 15:28N 39°30' W 075°33'0 0.0
2017-Apr-26 14:58N 39°30' W 075°33'0 0.0
2017-Apr-26 14:28N 39°30' W 075°33'0 0.0
2017-Apr-26 13:28N 39°30' W 075°33'0 0.0
2017-Apr-26 12:58N 39°30' W 075°33'0 0.3
2017-Apr-26 12:28N 39°30' W 075°33'0 0.1
2017-Apr-26 11:58N 39°30' W 075°33'0 0.0
2017-Apr-26 11:28N 39°30' W 075°33'0 0.0
2017-Apr-26 10:58N 39°30' W 075°33'0 0.0
2017-Apr-26 10:28N 39°30' W 075°33'0 0.0
2017-Apr-26 09:58N 39°30' W 075°33'0 0.0
2017-Apr-26 09:28N 39°30' W 075°33'0 0.0
2017-Apr-26 08:58N 39°30' W 075°33'0 0.0
2017-Apr-26 08:28N 39°30' W 075°33'0 0.0
2017-Apr-26 07:58N 39°30' W 075°33'0 0.0
2017-Apr-26 07:28N 39°30' W 075°33'0 0.0
2017-Apr-26 06:58N 39°30' W 075°33'0 0.0
2017-Apr-26 06:28N 39°30' W 075°33'0 0.0
2017-Apr-26 05:58N 39°30' W 075°33'0 0.0
2017-Apr-26 05:25N 39°30' W 075°33'0 0.0
2017-Apr-26 04:58N 39°30' W 075°33'0 0.0
2017-Apr-26 04:28N 39°30' W 075°33'0 0.0
2017-Apr-26 03:58N 39°30' W 075°33'0 0.0
2017-Apr-26 03:28N 39°30' W 075°33'0 0.1
2017-Apr-26 02:58N 39°30' W 075°33'0 0.1
2017-Apr-26 02:28N 39°30' W 075°33'0 0.1
2017-Apr-26 01:58N 39°30' W 075°33'0 0.0
2017-Apr-26 01:28N 39°30' W 075°33'0 0.0
2017-Apr-26 00:58N 39°30' W 075°33'0 0.3
2017-Apr-26 00:31N 39°30' W 075°33'0 0.0
2017-Apr-26 00:01N 39°30' W 075°33'0 0.0
2017-Apr-25 23:30N 39°30' W 075°33'0 0.1
2017-Apr-25 23:00N 39°30' W 075°33'0 0.0
2017-Apr-25 22:30N 39°30' W 075°33'0 0.0
2017-Apr-25 22:00N 39°30' W 075°33'0 0.0
2017-Apr-25 21:30N 39°30' W 075°33'0 0.0
2017-Apr-25 21:00N 39°30' W 075°33'0 0.0
2017-Apr-25 20:30N 39°30' W 075°33'0 0.0
2017-Apr-25 20:00N 39°30' W 075°33'0 0.0
2017-Apr-25 19:30N 39°30' W 075°33'0 0.0
2017-Apr-25 19:00N 39°30' W 075°33'0 0.0
2017-Apr-25 18:30N 39°30' W 075°33'0 0.0
2017-Apr-25 17:57N 39°30' W 075°33'0 0.0
2017-Apr-25 17:30N 39°30' W 075°33'0 0.0
2017-Apr-25 17:00N 39°30' W 075°33'0 0.1
2017-Apr-25 16:30N 39°30' W 075°33'3 5.4
2017-Apr-25 16:00N 39°32' W 075°33'4 8.5
2017-Apr-25 15:30N 39°36' W 075°34'4 7.5
2017-Apr-25 15:00N 39°40' W 075°32'8 7.9
2017-Apr-25 14:00N 39°47' W 075°28'4 8.2
2017-Apr-25 13:30N 39°49' W 075°23'4 8.0
2017-Apr-25 13:00N 39°51' W 075°19'5 9.3
2017-Apr-25 12:30N 39°52' W 075°13'5 9.3
2017-Apr-25 12:00N 39°55' W 075°08'4 8.7
2017-Apr-25 11:30N 39°59' W 075°05'1 2.1
2017-Apr-25 10:59N 39°59' W 075°04'0 0.0
2017-Apr-25 10:29N 39°59' W 075°04'0 0.2
2017-Apr-25 10:00N 39°59' W 075°04'0 0.1
2017-Apr-25 09:30N 39°59' W 075°04'1 2.5
2017-Apr-25 08:58N 39°58' W 075°06'1 3.0
2017-Apr-25 08:30N 39°58' W 075°07'2 3.7
2017-Apr-25 08:00N 39°56' W 075°08'0 0.0
2017-Apr-25 07:30N 39°56' W 075°08'0 0.0
2017-Apr-25 07:00N 39°56' W 075°08'0 0.0
2017-Apr-25 06:30N 39°56' W 075°08'0 0.0
2017-Apr-25 06:00N 39°56' W 075°08'0 0.0
2017-Apr-25 05:30N 39°56' W 075°08'0 0.0
2017-Apr-25 05:00N 39°56' W 075°08'0 0.0
2017-Apr-25 04:30N 39°56' W 075°08'0 0.0
2017-Apr-25 04:00N 39°56' W 075°08'0 0.0
2017-Apr-25 03:30N 39°56' W 075°08'0 0.0
2017-Apr-25 03:00N 39°56' W 075°08'0 0.0
2017-Apr-25 02:30N 39°56' W 075°08'0 0.0
2017-Apr-25 02:00N 39°56' W 075°08'0 0.0
2017-Apr-25 01:30N 39°56' W 075°08'0 0.0
2017-Apr-25 01:00N 39°56' W 075°08'0 0.0
2017-Apr-25 00:30N 39°56' W 075°08'1 2.2
2017-Apr-25 00:00N 39°55' W 075°08'4 7.1
2017-Apr-24 23:30N 39°53' W 075°12'1 1.6
2017-Apr-24 22:59N 39°54' W 075°12'0 0.0
2017-Apr-24 22:29N 39°54' W 075°12'0 0.0
2017-Apr-24 21:59N 39°54' W 075°12'0 0.0
2017-Apr-24 21:29N 39°54' W 075°12'0 0.0
2017-Apr-24 20:59N 39°54' W 075°12'0 0.0
2017-Apr-24 20:29N 39°54' W 075°12'0 0.0
2017-Apr-24 19:56N 39°54' W 075°12'0 0.0
2017-Apr-24 19:29N 39°54' W 075°12'0 0.0
2017-Apr-24 18:59N 39°54' W 075°12'0 0.0
2017-Apr-24 18:29N 39°54' W 075°12'0 0.0
2017-Apr-24 17:59N 39°54' W 075°12'0 0.7
2017-Apr-24 17:30N 39°53' W 075°12'3 6.6
2017-Apr-24 17:00N 39°55' W 075°08'4 8.0
2017-Apr-24 16:30N 39°58' W 075°06'1 2.6
2017-Apr-24 16:00N 39°59' W 075°04'0 0.0
2017-Apr-24 15:30N 39°59' W 075°04'0 0.0
2017-Apr-24 15:00N 39°59' W 075°04'2 4.9
2017-Apr-24 14:30N 39°58' W 075°07'3 2.8
2017-Apr-24 13:30N 39°55' W 075°08'0 0.0
2017-Apr-24 13:00N 39°55' W 075°08'0 0.2
2017-Apr-24 12:30N 39°55' W 075°08'0 0.3
2017-Apr-24 12:00N 39°55' W 075°08'0 0.0
2017-Apr-24 11:30N 39°55' W 075°08'0 0.0
2017-Apr-24 11:00N 39°55' W 075°08'0 0.0
2017-Apr-24 10:30N 39°55' W 075°08'0 0.0
2017-Apr-24 10:00N 39°55' W 075°08'0 0.0
2017-Apr-24 09:30N 39°55' W 075°08'0 0.0
2017-Apr-24 09:00N 39°55' W 075°08'0 0.0
2017-Apr-24 08:30N 39°55' W 075°08'0 0.0
2017-Apr-24 08:00N 39°55' W 075°08'0 0.0
2017-Apr-24 07:30N 39°55' W 075°08'0 0.0
2017-Apr-24 07:00N 39°55' W 075°08'0 0.0
2017-Apr-24 06:30N 39°55' W 075°08'0 0.1
2017-Apr-24 06:00N 39°55' W 075°08'0 0.1
2017-Apr-24 05:30N 39°55' W 075°08'0 0.2
2017-Apr-24 05:00N 39°55' W 075°08'0 0.1
2017-Apr-24 04:30N 39°55' W 075°08'0 0.0
2017-Apr-24 04:00N 39°55' W 075°08'0 0.0
2017-Apr-24 03:30N 39°55' W 075°08'0 0.0
2017-Apr-24 03:00N 39°55' W 075°08'0 0.0
2017-Apr-24 02:30N 39°55' W 075°08'0 0.0
2017-Apr-24 02:00N 39°55' W 075°08'0 0.0
2017-Apr-24 01:30N 39°55' W 075°08'0 0.0
2017-Apr-24 01:00N 39°55' W 075°08'0 0.0
2017-Apr-24 00:30N 39°55' W 075°08'0 0.0
2017-Apr-24 00:00N 39°55' W 075°08'0 0.3
2017-Apr-23 23:30N 39°55' W 075°08'0 0.1
2017-Apr-23 23:00N 39°55' W 075°08'0 0.0
2017-Apr-23 22:30N 39°55' W 075°08'0 0.0
2017-Apr-23 22:00N 39°55' W 075°08'0 0.0
2017-Apr-23 21:30N 39°55' W 075°08'0 0.0
2017-Apr-23 21:00N 39°55' W 075°08'0 0.0
2017-Apr-23 20:30N 39°55' W 075°08'0 0.0
2017-Apr-23 20:00N 39°55' W 075°08'0 0.0
2017-Apr-23 19:30N 39°55' W 075°08'0 0.0
2017-Apr-23 19:00N 39°55' W 075°08'0 0.0
2017-Apr-23 18:30N 39°55' W 075°08'0 0.0
2017-Apr-23 18:00N 39°55' W 075°08'0 0.0
2017-Apr-23 17:30N 39°55' W 075°08'0 0.3
2017-Apr-23 17:00N 39°55' W 075°08'0 0.1
2017-Apr-23 16:30N 39°55' W 075°08'0 0.0
2017-Apr-23 16:00N 39°55' W 075°08'0 0.0
2017-Apr-23 15:30N 39°55' W 075°08'0 0.0
2017-Apr-23 15:00N 39°55' W 075°08'0 0.0
2017-Apr-23 14:30N 39°55' W 075°08'0 0.0
2017-Apr-23 13:30N 39°55' W 075°08'0 0.0
2017-Apr-23 12:59N 39°55' W 075°08'0 0.0
2017-Apr-23 12:29N 39°55' W 075°08'0 0.0
2017-Apr-23 11:59N 39°55' W 075°08'0 0.3
2017-Apr-23 11:29N 39°55' W 075°08'0 0.1
2017-Apr-23 10:59N 39°55' W 075°08'0 0.0
2017-Apr-23 10:29N 39°55' W 075°08'0 0.0
2017-Apr-23 09:59N 39°55' W 075°08'0 0.0
2017-Apr-23 09:29N 39°55' W 075°08'0 0.0
2017-Apr-23 08:59N 39°55' W 075°08'0 0.0
2017-Apr-23 08:29N 39°55' W 075°08'0 0.0
2017-Apr-23 07:59N 39°55' W 075°08'0 0.0
2017-Apr-23 07:29N 39°55' W 075°08'0 0.0
2017-Apr-23 06:59N 39°55' W 075°08'0 0.0
2017-Apr-23 06:29N 39°55' W 075°08'0 0.0
2017-Apr-23 05:59N 39°55' W 075°08'0 0.0
2017-Apr-23 05:29N 39°55' W 075°08'0 0.0
2017-Apr-23 04:59N 39°55' W 075°08'0 0.0
2017-Apr-23 04:29N 39°55' W 075°08'0 0.2
2017-Apr-23 03:59N 39°55' W 075°08'0 0.1
2017-Apr-23 03:29N 39°55' W 075°08'0 0.0
2017-Apr-23 02:59N 39°55' W 075°08'0 0.0
2017-Apr-23 02:29N 39°55' W 075°08'0 0.1
2017-Apr-23 01:59N 39°55' W 075°08'0 0.0
2017-Apr-23 01:29N 39°55' W 075°08'0 0.0
2017-Apr-23 00:59N 39°55' W 075°08'0 0.0
2017-Apr-23 00:29N 39°55' W 075°08'0 0.0
2017-Apr-22 23:59N 39°55' W 075°08'0 0.0
2017-Apr-22 23:29N 39°55' W 075°08'0 0.3
2017-Apr-22 22:59N 39°55' W 075°08'0 0.1
2017-Apr-22 22:29N 39°55' W 075°08'0 0.0
2017-Apr-22 22:00N 39°55' W 075°08'0 0.0
2017-Apr-22 21:30N 39°55' W 075°08'0 0.0
2017-Apr-22 21:00N 39°55' W 075°08'0 0.0
2017-Apr-22 20:30N 39°55' W 075°08'0 0.0
2017-Apr-22 20:00N 39°55' W 075°08'0 0.0
2017-Apr-22 19:30N 39°55' W 075°08'0 0.0
2017-Apr-22 19:01N 39°55' W 075°08'0 0.0
2017-Apr-22 18:31N 39°55' W 075°08'0 0.0
2017-Apr-22 18:00N 39°55' W 075°08'0 0.0
2017-Apr-22 17:30N 39°55' W 075°08'0 0.0
2017-Apr-22 17:00N 39°55' W 075°08'0 0.0
2017-Apr-22 16:30N 39°55' W 075°08'0 0.0
2017-Apr-22 16:00N 39°55' W 075°08'0 0.9
2017-Apr-22 15:30N 39°55' W 075°08'3 6.8
2017-Apr-22 15:01N 39°53' W 075°11'4 8.1
2017-Apr-22 14:30N 39°51' W 075°16'8 8.5
2017-Apr-22 13:30N 39°48' W 075°26'4 9.0
2017-Apr-22 13:00N 39°44' W 075°30'5 9.2
2017-Apr-22 12:30N 39°40' W 075°32'4 8.3
2017-Apr-22 12:00N 39°36' W 075°34'1 2.8
2017-Apr-22 11:30N 39°35' W 075°35'1 1.9
2017-Apr-22 11:00N 39°35' W 075°36'0 0.1
2017-Apr-22 10:30N 39°35' W 075°36'0 0.0
2017-Apr-22 10:00N 39°35' W 075°36'0 0.0
2017-Apr-22 09:30N 39°35' W 075°36'0 0.0
2017-Apr-22 09:00N 39°35' W 075°36'0 0.0
2017-Apr-22 08:30N 39°35' W 075°36'0 0.0
2017-Apr-22 08:00N 39°35' W 075°36'0 0.0
2017-Apr-22 07:31N 39°35' W 075°36'0 0.0
2017-Apr-22 07:00N 39°35' W 075°36'0 0.0
2017-Apr-22 06:31N 39°35' W 075°36'0 0.0
2017-Apr-22 06:00N 39°35' W 075°36'0 0.0
2017-Apr-22 05:30N 39°35' W 075°36'0 0.0
2017-Apr-22 05:00N 39°35' W 075°36'0 0.0
2017-Apr-22 04:30N 39°35' W 075°36'0 0.0
2017-Apr-22 04:00N 39°35' W 075°36'0 0.0
2017-Apr-22 03:30N 39°35' W 075°36'0 0.0
2017-Apr-22 03:01N 39°35' W 075°36'0 0.0
2017-Apr-22 02:31N 39°35' W 075°36'0 0.0
2017-Apr-22 02:00N 39°35' W 075°36'0 0.0
2017-Apr-22 01:30N 39°35' W 075°36'0 0.0
2017-Apr-22 01:00N 39°35' W 075°36'0 0.0
2017-Apr-22 00:31N 39°35' W 075°36'0 0.0
2017-Apr-22 00:01N 39°35' W 075°36'0 0.0
2017-Apr-21 23:30N 39°35' W 075°36'0 0.0
2017-Apr-21 23:00N 39°35' W 075°36'0 0.0
2017-Apr-21 22:30N 39°35' W 075°36'0 0.0
2017-Apr-21 22:01N 39°35' W 075°36'0 0.0
2017-Apr-21 21:30N 39°35' W 075°36'0 0.0
2017-Apr-21 21:00N 39°35' W 075°36'0 0.0
2017-Apr-21 20:30N 39°35' W 075°36'0 0.0
2017-Apr-21 20:00N 39°35' W 075°36'0 0.0
2017-Apr-21 19:30N 39°35' W 075°36'0 0.0
2017-Apr-21 19:00N 39°35' W 075°36'0 0.0
2017-Apr-21 18:30N 39°35' W 075°36'0 0.0
2017-Apr-21 18:00N 39°35' W 075°36'0 0.0
2017-Apr-21 17:30N 39°35' W 075°36'0 0.0
2017-Apr-21 17:00N 39°35' W 075°36'2 3.8
2017-Apr-21 16:30N 39°34' W 075°34'1 2.8
2017-Apr-21 16:01N 39°33' W 075°33'0 0.0
2017-Apr-21 15:30N 39°33' W 075°33'0 0.0
2017-Apr-21 15:00N 39°33' W 075°33'0 0.0
2017-Apr-21 14:31N 39°33' W 075°33'0 0.1
2017-Apr-21 13:30N 39°33' W 075°33'0 0.0
2017-Apr-21 13:01N 39°33' W 075°33'0 0.0
2017-Apr-21 12:30N 39°33' W 075°33'0 0.1
2017-Apr-21 12:00N 39°33' W 075°33'0 0.0
2017-Apr-21 11:30N 39°33' W 075°33'0 0.0
2017-Apr-21 11:00N 39°33' W 075°33'0 0.0
2017-Apr-21 10:30N 39°33' W 075°33'0 0.0
2017-Apr-21 10:00N 39°33' W 075°33'0 0.0
2017-Apr-21 09:30N 39°33' W 075°33'0 0.0
2017-Apr-21 09:01N 39°33' W 075°33'0 0.0
2017-Apr-21 08:30N 39°33' W 075°33'0 0.0
2017-Apr-21 08:00N 39°33' W 075°33'0 0.0
2017-Apr-21 07:30N 39°33' W 075°33'0 0.0
2017-Apr-21 07:01N 39°33' W 075°33'0 0.2
2017-Apr-21 06:30N 39°33' W 075°33'0 0.0
2017-Apr-21 06:01N 39°33' W 075°33'0 0.0
2017-Apr-21 05:30N 39°33' W 075°33'0 0.0
2017-Apr-21 05:00N 39°33' W 075°33'0 0.0
2017-Apr-21 04:30N 39°33' W 075°33'0 0.0
2017-Apr-21 04:00N 39°33' W 075°33'0 0.0
2017-Apr-21 03:30N 39°33' W 075°33'0 0.0
2017-Apr-21 03:01N 39°33' W 075°33'0 0.0
2017-Apr-21 02:30N 39°33' W 075°33'0 0.1
2017-Apr-21 02:00N 39°33' W 075°33'0 0.1
2017-Apr-21 01:30N 39°33' W 075°33'0 0.1
2017-Apr-21 01:01N 39°33' W 075°33'0 0.1
2017-Apr-21 00:30N 39°33' W 075°33'0 0.0
2017-Apr-21 00:00N 39°33' W 075°33'0 0.0
2017-Apr-20 23:30N 39°33' W 075°33'0 0.0
2017-Apr-20 23:00N 39°33' W 075°33'0 0.0
2017-Apr-20 22:30N 39°33' W 075°33'0 0.0
2017-Apr-20 22:00N 39°33' W 075°33'0 0.0
2017-Apr-20 21:30N 39°33' W 075°33'0 0.0
2017-Apr-20 21:00N 39°33' W 075°33'0 0.0
2017-Apr-20 20:30N 39°33' W 075°33'0 0.1
2017-Apr-20 20:00N 39°33' W 075°33'0 0.0
2017-Apr-20 19:30N 39°33' W 075°33'0 0.1
2017-Apr-20 19:00N 39°33' W 075°33'0 0.1
2017-Apr-20 18:30N 39°33' W 075°33'0 0.0
2017-Apr-20 18:01N 39°33' W 075°33'0 0.0
2017-Apr-20 17:30N 39°33' W 075°33'0 0.0
2017-Apr-20 17:01N 39°33' W 075°33'0 0.0
2017-Apr-20 16:31N 39°33' W 075°33'0 0.0
2017-Apr-20 16:00N 39°33' W 075°33'0 0.0
2017-Apr-20 15:30N 39°33' W 075°33'0 0.0
2017-Apr-20 15:01N 39°33' W 075°33'0 0.0
2017-Apr-20 14:30N 39°33' W 075°33'0 0.0
2017-Apr-20 13:30N 39°33' W 075°33'0 0.1
2017-Apr-20 13:00N 39°33' W 075°33'0 0.0
2017-Apr-20 12:31N 39°33' W 075°33'0 0.1
2017-Apr-20 12:00N 39°33' W 075°33'0 0.0
2017-Apr-20 11:30N 39°33' W 075°33'0 0.0
2017-Apr-20 11:00N 39°33' W 075°33'0 0.0
2017-Apr-20 10:30N 39°33' W 075°33'0 0.0
2017-Apr-20 10:00N 39°33' W 075°33'0 0.0
2017-Apr-20 09:30N 39°33' W 075°33'0 0.0
2017-Apr-20 09:00N 39°33' W 075°33'0 0.0
2017-Apr-20 08:30N 39°33' W 075°33'0 0.0
2017-Apr-20 08:00N 39°33' W 075°33'0 0.1
2017-Apr-20 07:30N 39°33' W 075°33'0 0.0
2017-Apr-20 07:00N 39°33' W 075°33'0 0.0
2017-Apr-20 06:30N 39°33' W 075°33'0 0.1
2017-Apr-20 06:00N 39°33' W 075°33'0 0.0
2017-Apr-20 05:30N 39°33' W 075°33'0 0.0
2017-Apr-20 05:00N 39°33' W 075°33'0 0.0
2017-Apr-20 04:30N 39°33' W 075°33'0 0.0
2017-Apr-20 04:00N 39°33' W 075°33'0 0.0
2017-Apr-20 03:30N 39°33' W 075°33'0 0.0
2017-Apr-20 03:00N 39°33' W 075°33'0 0.0
2017-Apr-20 02:31N 39°33' W 075°33'0 0.0
2017-Apr-20 02:00N 39°33' W 075°33'0 0.1
2017-Apr-20 01:30N 39°33' W 075°33'0 0.1
2017-Apr-20 01:00N 39°33' W 075°33'0 0.1
2017-Apr-20 00:30N 39°33' W 075°33'0 0.1
2017-Apr-20 00:00N 39°33' W 075°33'0 0.0
2017-Apr-19 23:30N 39°33' W 075°33'0 0.0
2017-Apr-19 23:00N 39°33' W 075°33'0 0.0
2017-Apr-19 22:30N 39°33' W 075°33'0 0.0
2017-Apr-19 22:00N 39°33' W 075°33'0 0.0
2017-Apr-19 21:30N 39°33' W 075°33'0 0.0
2017-Apr-19 21:00N 39°33' W 075°33'0 0.9
2017-Apr-19 20:30N 39°33' W 075°33'4 8.2
2017-Apr-19 20:00N 39°33' W 075°38'510.3
2017-Apr-19 19:30N 39°32' W 075°45'5 9.3
2017-Apr-19 19:00N 39°32' W 075°51'510.2
2017-Apr-19 18:30N 39°29' W 075°57'510.4
2017-Apr-19 18:00N 39°25' W 076°01'510.1
2017-Apr-19 17:30N 39°23' W 076°07'510.4
2017-Apr-19 17:00N 39°20' W 076°12'5 9.9
2017-Apr-19 16:28N 39°15' W 076°14'710.0
2017-Apr-19 15:48N 39°09' W 076°19'3 8.3
2017-Apr-19 15:30N 39°07' W 076°20'5 9.2
2017-Apr-19 14:59N 39°02' W 076°22'510.3
2017-Apr-19 14:30N 38°57' W 076°24'1110.2
2017-Apr-19 13:24N 38°46' W 076°27'410.0
2017-Apr-19 12:59N 38°42' W 076°27'7 9.9
2017-Apr-19 12:19N 38°36' W 076°28'4 9.5
2017-Apr-19 11:53N 38°32' W 076°27'4 9.9
2017-Apr-19 11:29N 38°28' W 076°25'510.3
2017-Apr-19 11:00N 38°24' W 076°21'510.2
2017-Apr-19 10:30N 38°19' W 076°20'2410.1
2017-Apr-19 08:07N 37°56' W 076°10'26 9.5
2017-Apr-19 05:26N 37°31' W 076°09'5 9.8
2017-Apr-19 04:59N 37°26' W 076°08'6 9.6
2017-Apr-19 04:24N 37°21' W 076°09'4 9.5
2017-Apr-19 03:56N 37°16' W 076°09'20 6.6
2017-Apr-19 01:00N 36°59' W 076°20'4 4.2
2017-Apr-19 00:06N 36°55' W 076°20'310.4
2017-Apr-18 23:51N 36°53' W 076°20'3 8.7
2017-Apr-18 23:30N 36°50' W 076°18'3 7.0
2017-Apr-18 23:01N 36°47' W 076°19'0 0.3
2017-Apr-18 22:30N 36°47' W 076°18'0 0.0
2017-Apr-18 22:01N 36°47' W 076°18'0 0.0
2017-Apr-18 21:30N 36°47' W 076°18'0 0.0
2017-Apr-18 21:00N 36°47' W 076°18'0 0.0
2017-Apr-18 20:30N 36°47' W 076°18'0 0.0
2017-Apr-18 20:00N 36°47' W 076°18'0 0.0
2017-Apr-18 19:30N 36°47' W 076°18'0 0.0
2017-Apr-18 19:00N 36°47' W 076°18'0 0.0
2017-Apr-18 18:31N 36°47' W 076°18'0 0.0
2017-Apr-18 18:00N 36°47' W 076°18'0 0.0
2017-Apr-18 17:30N 36°47' W 076°18'0 0.0
2017-Apr-18 17:00N 36°47' W 076°18'0 0.0
2017-Apr-18 16:30N 36°47' W 076°18'0 0.0
2017-Apr-18 16:00N 36°47' W 076°18'0 0.0
2017-Apr-18 15:31N 36°47' W 076°18'0 0.0
2017-Apr-18 15:00N 36°47' W 076°18'0 0.0
2017-Apr-18 14:31N 36°47' W 076°18'0 0.0
2017-Apr-18 13:31N 36°47' W 076°18'0 0.0
2017-Apr-18 13:00N 36°47' W 076°18'0 0.0
2017-Apr-18 12:31N 36°47' W 076°18'0 0.0
2017-Apr-18 12:01N 36°47' W 076°18'0 0.0
2017-Apr-18 11:31N 36°47' W 076°18'0 0.0
2017-Apr-18 11:00N 36°47' W 076°18'0 0.0
2017-Apr-18 10:30N 36°47' W 076°18'0 0.0
2017-Apr-18 10:00N 36°47' W 076°18'0 0.0
2017-Apr-18 09:30N 36°47' W 076°18'0 0.0
2017-Apr-18 09:01N 36°47' W 076°18'0 0.0
2017-Apr-18 08:30N 36°47' W 076°18'0 0.0
2017-Apr-18 08:00N 36°47' W 076°18'0 0.0
2017-Apr-18 07:31N 36°47' W 076°18'0 0.0
2017-Apr-18 07:00N 36°47' W 076°18'0 0.0
2017-Apr-18 06:30N 36°47' W 076°18'0 0.0
2017-Apr-18 06:00N 36°47' W 076°18'0 0.0
2017-Apr-18 05:30N 36°47' W 076°18'0 0.0
2017-Apr-18 05:01N 36°47' W 076°18'0 0.0
2017-Apr-18 04:30N 36°47' W 076°18'1 1.5
2017-Apr-18 04:00N 36°47' W 076°18'2 4.7
2017-Apr-18 03:30N 36°50' W 076°18'1 2.8
2017-Apr-18 03:00N 36°51' W 076°18'2 3.8
2017-Apr-18 02:30N 36°52' W 076°20'5 0.6
2017-Apr-17 18:36N 36°57' W 076°21'  

Dump ship's entire track history